sensor_id;sensor_type;location;lat;lon;timestamp;P1;durP1;ratioP1;P2;durP2;ratioP2
55031;SDS011;40928;51.076;7.950;2022-09-24T00:00:42;5.13;;;2.33;;
55031;SDS011;40928;51.076;7.950;2022-09-24T00:03:09;9.13;;;2.25;;
55031;SDS011;40928;51.076;7.950;2022-09-24T00:05:38;7.82;;;2.88;;
55031;SDS011;40928;51.076;7.950;2022-09-24T00:08:05;5.70;;;2.47;;
55031;SDS011;40928;51.076;7.950;2022-09-24T00:10:35;9.02;;;2.72;;
55031;SDS011;40928;51.076;7.950;2022-09-24T00:13:03;8.07;;;2.22;;
55031;SDS011;40928;51.076;7.950;2022-09-24T00:15:29;3.97;;;2.20;;
55031;SDS011;40928;51.076;7.950;2022-09-24T00:17:55;7.95;;;2.15;;
55031;SDS011;40928;51.076;7.950;2022-09-24T00:20:21;6.63;;;1.90;;
55031;SDS011;40928;51.076;7.950;2022-09-24T00:22:46;4.68;;;2.10;;
55031;SDS011;40928;51.076;7.950;2022-09-24T00:25:12;7.40;;;2.33;;
55031;SDS011;40928;51.076;7.950;2022-09-24T00:27:56;4.45;;;2.30;;
55031;SDS011;40928;51.076;7.950;2022-09-24T00:30:21;3.72;;;2.00;;
55031;SDS011;40928;51.076;7.950;2022-09-24T00:32:47;6.35;;;2.40;;
55031;SDS011;40928;51.076;7.950;2022-09-24T00:35:12;5.85;;;1.50;;
55031;SDS011;40928;51.076;7.950;2022-09-24T00:37:38;3.40;;;1.80;;
55031;SDS011;40928;51.076;7.950;2022-09-24T00:40:03;2.88;;;1.65;;
55031;SDS011;40928;51.076;7.950;2022-09-24T00:42:30;3.92;;;1.90;;
55031;SDS011;40928;51.076;7.950;2022-09-24T00:44:56;2.90;;;1.60;;
55031;SDS011;40928;51.076;7.950;2022-09-24T00:47:27;2.40;;;1.50;;
55031;SDS011;40928;51.076;7.950;2022-09-24T00:50:38;4.95;;;2.05;;
55031;SDS011;40928;51.076;7.950;2022-09-24T00:52:49;4.30;;;1.90;;
55031;SDS011;40928;51.076;7.950;2022-09-24T00:55:18;1.98;;;1.40;;
55031;SDS011;40928;51.076;7.950;2022-09-24T00:57:46;2.55;;;1.85;;
55031;SDS011;40928;51.076;7.950;2022-09-24T01:00:15;5.90;;;2.13;;
55031;SDS011;40928;51.076;7.950;2022-09-24T01:02:41;6.97;;;1.77;;
55031;SDS011;40928;51.076;7.950;2022-09-24T01:05:10;2.40;;;1.70;;
55031;SDS011;40928;51.076;7.950;2022-09-24T01:07:36;2.30;;;1.60;;
55031;SDS011;40928;51.076;7.950;2022-09-24T01:10:02;4.50;;;1.85;;
55031;SDS011;40928;51.076;7.950;2022-09-24T01:12:35;2.55;;;1.70;;
55031;SDS011;40928;51.076;7.950;2022-09-24T01:17:59;2.63;;;1.45;;
55031;SDS011;40928;51.076;7.950;2022-09-24T01:32:05;5.72;;;1.50;;
55031;SDS011;40928;51.076;7.950;2022-09-24T01:34:34;8.93;;;2.05;;
55031;SDS011;40928;51.076;7.950;2022-09-24T01:37:05;3.45;;;1.90;;
55031;SDS011;40928;51.076;7.950;2022-09-24T01:39:31;3.40;;;1.80;;
55031;SDS011;40928;51.076;7.950;2022-09-24T01:41:57;9.13;;;1.60;;
55031;SDS011;40928;51.076;7.950;2022-09-24T01:44:24;2.03;;;1.83;;
55031;SDS011;40928;51.076;7.950;2022-09-24T01:46:50;5.05;;;1.90;;
55031;SDS011;40928;51.076;7.950;2022-09-24T01:49:16;2.33;;;1.60;;
55031;SDS011;40928;51.076;7.950;2022-09-24T01:51:51;3.30;;;1.98;;
55031;SDS011;40928;51.076;7.950;2022-09-24T01:54:30;3.72;;;2.13;;
55031;SDS011;40928;51.076;7.950;2022-09-24T01:59:33;3.20;;;1.90;;
55031;SDS011;40928;51.076;7.950;2022-09-24T02:02:11;5.82;;;1.90;;
55031;SDS011;40928;51.076;7.950;2022-09-24T02:04:40;3.97;;;1.60;;
55031;SDS011;40928;51.076;7.950;2022-09-24T02:07:10;2.15;;;1.55;;
55031;SDS011;40928;51.076;7.950;2022-09-24T02:09:43;2.88;;;1.95;;
55031;SDS011;40928;51.076;7.950;2022-09-24T02:14:38;3.22;;;1.80;;
55031;SDS011;40928;51.076;7.950;2022-09-24T02:17:10;6.30;;;2.85;;
55031;SDS011;40928;51.076;7.950;2022-09-24T02:19:37;3.92;;;1.80;;
55031;SDS011;40928;51.076;7.950;2022-09-24T02:22:05;2.63;;;1.55;;
55031;SDS011;40928;51.076;7.950;2022-09-24T02:27:06;2.17;;;1.65;;
55031;SDS011;40928;51.076;7.950;2022-09-24T02:29:31;7.35;;;1.83;;
55031;SDS011;40928;51.076;7.950;2022-09-24T02:31:57;6.18;;;1.90;;
55031;SDS011;40928;51.076;7.950;2022-09-24T02:34:29;7.88;;;2.22;;
55031;SDS011;40928;51.076;7.950;2022-09-24T02:37:04;3.42;;;1.88;;
55031;SDS011;40928;51.076;7.950;2022-09-24T02:39:31;3.53;;;2.00;;
55031;SDS011;40928;51.076;7.950;2022-09-24T02:41:57;3.20;;;1.55;;
55031;SDS011;40928;51.076;7.950;2022-09-24T02:44:23;3.08;;;1.85;;
55031;SDS011;40928;51.076;7.950;2022-09-24T02:46:49;4.18;;;2.55;;
55031;SDS011;40928;51.076;7.950;2022-09-24T02:49:15;3.78;;;2.08;;
55031;SDS011;40928;51.076;7.950;2022-09-24T02:51:41;7.38;;;2.65;;
55031;SDS011;40928;51.076;7.950;2022-09-24T02:54:07;6.32;;;1.85;;
55031;SDS011;40928;51.076;7.950;2022-09-24T02:56:33;5.50;;;2.47;;
55031;SDS011;40928;51.076;7.950;2022-09-24T03:02:22;7.03;;;2.22;;
55031;SDS011;40928;51.076;7.950;2022-09-24T03:04:47;9.68;;;2.90;;
55031;SDS011;40928;51.076;7.950;2022-09-24T03:07:13;3.90;;;1.83;;
55031;SDS011;40928;51.076;7.950;2022-09-24T03:09:38;3.00;;;2.08;;
55031;SDS011;40928;51.076;7.950;2022-09-24T03:12:04;2.88;;;1.65;;
55031;SDS011;40928;51.076;7.950;2022-09-24T03:14:29;3.85;;;1.70;;
55031;SDS011;40928;51.076;7.950;2022-09-24T03:16:55;2.65;;;1.92;;
55031;SDS011;40928;51.076;7.950;2022-09-24T03:19:20;4.28;;;1.92;;
55031;SDS011;40928;51.076;7.950;2022-09-24T03:21:46;3.95;;;1.70;;
55031;SDS011;40928;51.076;7.950;2022-09-24T03:24:11;4.68;;;1.75;;
55031;SDS011;40928;51.076;7.950;2022-09-24T03:26:37;3.63;;;2.10;;
55031;SDS011;40928;51.076;7.950;2022-09-24T03:29:02;3.05;;;2.05;;
55031;SDS011;40928;51.076;7.950;2022-09-24T03:31:28;3.30;;;1.83;;
55031;SDS011;40928;51.076;7.950;2022-09-24T03:33:53;3.92;;;2.00;;
55031;SDS011;40928;51.076;7.950;2022-09-24T03:36:20;4.75;;;1.98;;
55031;SDS011;40928;51.076;7.950;2022-09-24T03:38:49;3.13;;;1.77;;
55031;SDS011;40928;51.076;7.950;2022-09-24T03:41:20;2.67;;;1.80;;
55031;SDS011;40928;51.076;7.950;2022-09-24T03:43:47;2.53;;;1.60;;
55031;SDS011;40928;51.076;7.950;2022-09-24T03:46:13;2.38;;;1.80;;
55031;SDS011;40928;51.076;7.950;2022-09-24T03:48:41;2.70;;;1.92;;
55031;SDS011;40928;51.076;7.950;2022-09-24T03:51:08;3.75;;;1.70;;
55031;SDS011;40928;51.076;7.950;2022-09-24T03:53:39;5.78;;;2.03;;
55031;SDS011;40928;51.076;7.950;2022-09-24T03:56:05;4.15;;;2.10;;
55031;SDS011;40928;51.076;7.950;2022-09-24T03:58:33;3.13;;;1.67;;
55031;SDS011;40928;51.076;7.950;2022-09-24T04:01:03;3.78;;;1.67;;
55031;SDS011;40928;51.076;7.950;2022-09-24T04:03:30;3.78;;;2.13;;
55031;SDS011;40928;51.076;7.950;2022-09-24T04:05:56;2.40;;;1.88;;
55031;SDS011;40928;51.076;7.950;2022-09-24T04:08:21;3.47;;;2.03;;
55031;SDS011;40928;51.076;7.950;2022-09-24T04:10:48;4.50;;;1.83;;
55031;SDS011;40928;51.076;7.950;2022-09-24T04:13:14;3.00;;;1.80;;
55031;SDS011;40928;51.076;7.950;2022-09-24T04:15:41;2.40;;;1.48;;
55031;SDS011;40928;51.076;7.950;2022-09-24T04:18:07;3.42;;;2.13;;
55031;SDS011;40928;51.076;7.950;2022-09-24T04:20:32;2.55;;;1.77;;
55031;SDS011;40928;51.076;7.950;2022-09-24T04:22:59;5.97;;;1.58;;
55031;SDS011;40928;51.076;7.950;2022-09-24T04:25:25;7.43;;;1.67;;
55031;SDS011;40928;51.076;7.950;2022-09-24T04:27:55;3.10;;;2.10;;
55031;SDS011;40928;51.076;7.950;2022-09-24T04:30:22;3.38;;;1.90;;
55031;SDS011;40928;51.076;7.950;2022-09-24T04:32:49;4.18;;;2.03;;
55031;SDS011;40928;51.076;7.950;2022-09-24T04:35:18;2.47;;;1.70;;
55031;SDS011;40928;51.076;7.950;2022-09-24T04:37:45;3.67;;;2.10;;
55031;SDS011;40928;51.076;7.950;2022-09-24T04:40:14;4.63;;;2.63;;
55031;SDS011;40928;51.076;7.950;2022-09-24T04:43:11;7.30;;;3.03;;
55031;SDS011;40928;51.076;7.950;2022-09-24T04:45:37;5.00;;;2.28;;
55031;SDS011;40928;51.076;7.950;2022-09-24T04:48:03;5.88;;;3.03;;
55031;SDS011;40928;51.076;7.950;2022-09-24T04:50:32;8.43;;;3.60;;
55031;SDS011;40928;51.076;7.950;2022-09-24T04:52:57;3.70;;;2.70;;
55031;SDS011;40928;51.076;7.950;2022-09-24T04:55:24;7.78;;;3.22;;
55031;SDS011;40928;51.076;7.950;2022-09-24T04:57:50;5.20;;;2.65;;
55031;SDS011;40928;51.076;7.950;2022-09-24T05:00:16;7.75;;;2.85;;
55031;SDS011;40928;51.076;7.950;2022-09-24T05:02:44;6.53;;;3.42;;
55031;SDS011;40928;51.076;7.950;2022-09-24T05:05:10;4.68;;;2.90;;
55031;SDS011;40928;51.076;7.950;2022-09-24T05:07:37;7.15;;;3.28;;
55031;SDS011;40928;51.076;7.950;2022-09-24T05:10:03;4.90;;;2.50;;
55031;SDS011;40928;51.076;7.950;2022-09-24T05:12:30;4.32;;;2.75;;
55031;SDS011;40928;51.076;7.950;2022-09-24T05:14:57;5.20;;;3.03;;
55031;SDS011;40928;51.076;7.950;2022-09-24T05:17:23;4.45;;;3.03;;
55031;SDS011;40928;51.076;7.950;2022-09-24T05:19:48;6.20;;;2.92;;
55031;SDS011;40928;51.076;7.950;2022-09-24T05:22:13;4.95;;;2.65;;
55031;SDS011;40928;51.076;7.950;2022-09-24T05:24:39;5.43;;;2.15;;
55031;SDS011;40928;51.076;7.950;2022-09-24T05:27:04;5.28;;;2.55;;
55031;SDS011;40928;51.076;7.950;2022-09-24T05:29:42;3.25;;;2.28;;
55031;SDS011;40928;51.076;7.950;2022-09-24T05:32:09;2.70;;;2.08;;
55031;SDS011;40928;51.076;7.950;2022-09-24T05:34:36;2.58;;;1.77;;
55031;SDS011;40928;51.076;7.950;2022-09-24T05:37:02;3.53;;;2.30;;
55031;SDS011;40928;51.076;7.950;2022-09-24T05:39:28;8.10;;;2.22;;
55031;SDS011;40928;51.076;7.950;2022-09-24T05:41:54;3.25;;;2.45;;
55031;SDS011;40928;51.076;7.950;2022-09-24T05:44:20;4.80;;;2.80;;
55031;SDS011;40928;51.076;7.950;2022-09-24T05:46:47;2.90;;;2.00;;
55031;SDS011;40928;51.076;7.950;2022-09-24T05:49:13;5.40;;;2.67;;
55031;SDS011;40928;51.076;7.950;2022-09-24T05:51:38;3.72;;;2.40;;
55031;SDS011;40928;51.076;7.950;2022-09-24T05:54:04;4.15;;;2.20;;
55031;SDS011;40928;51.076;7.950;2022-09-24T05:56:30;3.08;;;2.15;;
55031;SDS011;40928;51.076;7.950;2022-09-24T05:58:55;5.53;;;2.83;;
55031;SDS011;40928;51.076;7.950;2022-09-24T06:01:20;3.30;;;2.55;;
55031;SDS011;40928;51.076;7.950;2022-09-24T06:03:46;6.68;;;3.00;;
55031;SDS011;40928;51.076;7.950;2022-09-24T06:06:15;7.43;;;2.28;;
55031;SDS011;40928;51.076;7.950;2022-09-24T06:08:41;5.85;;;2.33;;
55031;SDS011;40928;51.076;7.950;2022-09-24T06:11:06;4.43;;;2.42;;
55031;SDS011;40928;51.076;7.950;2022-09-24T06:13:32;3.80;;;2.45;;
55031;SDS011;40928;51.076;7.950;2022-09-24T06:16:08;3.60;;;2.40;;
55031;SDS011;40928;51.076;7.950;2022-09-24T06:18:37;6.07;;;2.38;;
55031;SDS011;40928;51.076;7.950;2022-09-24T06:21:06;4.35;;;2.58;;
55031;SDS011;40928;51.076;7.950;2022-09-24T06:23:34;9.15;;;3.05;;
55031;SDS011;40928;51.076;7.950;2022-09-24T06:26:00;4.15;;;3.05;;
55031;SDS011;40928;51.076;7.950;2022-09-24T06:28:26;6.30;;;2.75;;
55031;SDS011;40928;51.076;7.950;2022-09-24T06:30:52;5.47;;;3.92;;
55031;SDS011;40928;51.076;7.950;2022-09-24T06:33:18;8.20;;;3.63;;
55031;SDS011;40928;51.076;7.950;2022-09-24T06:35:44;6.57;;;3.03;;
55031;SDS011;40928;51.076;7.950;2022-09-24T06:38:11;8.75;;;3.40;;
55031;SDS011;40928;51.076;7.950;2022-09-24T06:40:39;5.65;;;2.95;;
55031;SDS011;40928;51.076;7.950;2022-09-24T06:43:05;7.97;;;3.42;;
55031;SDS011;40928;51.076;7.950;2022-09-24T06:45:32;6.85;;;3.42;;
55031;SDS011;40928;51.076;7.950;2022-09-24T06:47:58;6.53;;;3.15;;
55031;SDS011;40928;51.076;7.950;2022-09-24T06:50:26;5.85;;;3.42;;
55031;SDS011;40928;51.076;7.950;2022-09-24T06:52:53;5.97;;;3.20;;
55031;SDS011;40928;51.076;7.950;2022-09-24T06:55:19;4.85;;;3.05;;
55031;SDS011;40928;51.076;7.950;2022-09-24T06:57:45;6.30;;;3.47;;
55031;SDS011;40928;51.076;7.950;2022-09-24T07:00:11;8.30;;;3.72;;
55031;SDS011;40928;51.076;7.950;2022-09-24T07:02:38;6.80;;;3.47;;
55031;SDS011;40928;51.076;7.950;2022-09-24T07:05:04;8.20;;;3.47;;
55031;SDS011;40928;51.076;7.950;2022-09-24T07:07:31;6.65;;;4.25;;
55031;SDS011;40928;51.076;7.950;2022-09-24T07:10:00;7.95;;;4.18;;
55031;SDS011;40928;51.076;7.950;2022-09-24T07:12:27;8.50;;;4.10;;
55031;SDS011;40928;51.076;7.950;2022-09-24T07:14:54;5.72;;;2.80;;
55031;SDS011;40928;51.076;7.950;2022-09-24T07:17:20;5.00;;;2.92;;
55031;SDS011;40928;51.076;7.950;2022-09-24T07:19:46;8.77;;;3.05;;
55031;SDS011;40928;51.076;7.950;2022-09-24T07:22:12;6.60;;;3.63;;
55031;SDS011;40928;51.076;7.950;2022-09-24T07:24:37;5.18;;;2.83;;
55031;SDS011;40928;51.076;7.950;2022-09-24T07:27:04;8.50;;;3.47;;
55031;SDS011;40928;51.076;7.950;2022-09-24T07:29:29;5.47;;;2.80;;
55031;SDS011;40928;51.076;7.950;2022-09-24T07:31:55;5.40;;;2.50;;
55031;SDS011;40928;51.076;7.950;2022-09-24T07:34:20;8.40;;;2.95;;
55031;SDS011;40928;51.076;7.950;2022-09-24T07:36:46;4.05;;;2.40;;
55031;SDS011;40928;51.076;7.950;2022-09-24T07:39:12;5.88;;;2.28;;
55031;SDS011;40928;51.076;7.950;2022-09-24T07:41:37;7.55;;;3.35;;
55031;SDS011;40928;51.076;7.950;2022-09-24T07:44:06;5.00;;;2.38;;
55031;SDS011;40928;51.076;7.950;2022-09-24T07:46:33;8.20;;;3.05;;
55031;SDS011;40928;51.076;7.950;2022-09-24T07:48:58;4.28;;;2.70;;
55031;SDS011;40928;51.076;7.950;2022-09-24T07:51:24;4.72;;;3.05;;
55031;SDS011;40928;51.076;7.950;2022-09-24T07:53:52;5.93;;;2.97;;
55031;SDS011;40928;51.076;7.950;2022-09-24T07:56:27;7.95;;;3.05;;
55031;SDS011;40928;51.076;7.950;2022-09-24T07:58:55;4.88;;;3.20;;
55031;SDS011;40928;51.076;7.950;2022-09-24T08:01:20;4.18;;;2.67;;
55031;SDS011;40928;51.076;7.950;2022-09-24T08:03:46;4.95;;;2.80;;
55031;SDS011;40928;51.076;7.950;2022-09-24T08:06:12;5.63;;;3.28;;
55031;SDS011;40928;51.076;7.950;2022-09-24T08:08:38;8.18;;;2.78;;
55031;SDS011;40928;51.076;7.950;2022-09-24T08:11:04;5.10;;;3.22;;
55031;SDS011;40928;51.076;7.950;2022-09-24T08:13:31;5.10;;;2.72;;
55031;SDS011;40928;51.076;7.950;2022-09-24T08:15:58;4.70;;;2.83;;
55031;SDS011;40928;51.076;7.950;2022-09-24T08:18:25;6.90;;;3.03;;
55031;SDS011;40928;51.076;7.950;2022-09-24T08:20:51;4.97;;;3.03;;
55031;SDS011;40928;51.076;7.950;2022-09-24T08:23:17;4.90;;;3.58;;
55031;SDS011;40928;51.076;7.950;2022-09-24T08:25:43;6.13;;;3.25;;
55031;SDS011;40928;51.076;7.950;2022-09-24T08:28:08;6.85;;;4.03;;
55031;SDS011;40928;51.076;7.950;2022-09-24T08:30:37;6.68;;;3.97;;
55031;SDS011;40928;51.076;7.950;2022-09-24T08:33:06;5.43;;;3.03;;
55031;SDS011;40928;51.076;7.950;2022-09-24T08:35:33;7.47;;;4.03;;
55031;SDS011;40928;51.076;7.950;2022-09-24T08:37:59;7.53;;;3.67;;
55031;SDS011;40928;51.076;7.950;2022-09-24T08:40:26;8.27;;;3.25;;
55031;SDS011;40928;51.076;7.950;2022-09-24T08:43:09;5.72;;;3.25;;
55031;SDS011;40928;51.076;7.950;2022-09-24T08:45:58;6.28;;;3.50;;
55031;SDS011;40928;51.076;7.950;2022-09-24T08:48:48;5.72;;;2.92;;
55031;SDS011;40928;51.076;7.950;2022-09-24T08:51:17;7.38;;;3.40;;
55031;SDS011;40928;51.076;7.950;2022-09-24T08:53:50;5.00;;;2.97;;
55031;SDS011;40928;51.076;7.950;2022-09-24T08:56:24;8.35;;;4.00;;
55031;SDS011;40928;51.076;7.950;2022-09-24T08:58:57;5.63;;;3.10;;
55031;SDS011;40928;51.076;7.950;2022-09-24T09:04:03;9.93;;;4.82;;
55031;SDS011;40928;51.076;7.950;2022-09-24T09:09:51;7.00;;;4.82;;
55031;SDS011;40928;51.076;7.950;2022-09-24T09:15:18;9.13;;;6.13;;
55031;SDS011;40928;51.076;7.950;2022-09-24T09:18:02;12.32;;;6.53;;
55031;SDS011;40928;51.076;7.950;2022-09-24T09:20:38;11.45;;;6.35;;
55031;SDS011;40928;51.076;7.950;2022-09-24T09:25:41;13.95;;;7.03;;
55031;SDS011;40928;51.076;7.950;2022-09-24T09:28:15;13.90;;;6.80;;
55031;SDS011;40928;51.076;7.950;2022-09-24T09:31:04;12.55;;;6.43;;
55031;SDS011;40928;51.076;7.950;2022-09-24T09:44:43;14.55;;;8.35;;
55031;SDS011;40928;51.076;7.950;2022-09-24T09:47:28;11.60;;;6.40;;
55031;SDS011;40928;51.076;7.950;2022-09-24T09:50:05;13.98;;;5.43;;
55031;SDS011;40928;51.076;7.950;2022-09-24T09:52:48;10.68;;;5.25;;
55031;SDS011;40928;51.076;7.950;2022-09-24T09:55:27;11.60;;;4.95;;
55031;SDS011;40928;51.076;7.950;2022-09-24T10:00:39;12.43;;;7.18;;
55031;SDS011;40928;51.076;7.950;2022-09-24T10:03:05;8.93;;;6.13;;
55031;SDS011;40928;51.076;7.950;2022-09-24T10:05:34;11.98;;;5.68;;
55031;SDS011;40928;51.076;7.950;2022-09-24T10:07:59;11.55;;;5.95;;
55031;SDS011;40928;51.076;7.950;2022-09-24T10:10:26;10.30;;;6.25;;
55031;SDS011;40928;51.076;7.950;2022-09-24T10:13:14;13.75;;;6.30;;
55031;SDS011;40928;51.076;7.950;2022-09-24T10:15:47;14.13;;;6.25;;
55031;SDS011;40928;51.076;7.950;2022-09-24T10:18:15;11.80;;;6.20;;
55031;SDS011;40928;51.076;7.950;2022-09-24T10:20:44;11.98;;;7.25;;
55031;SDS011;40928;51.076;7.950;2022-09-24T10:23:22;14.55;;;7.93;;
55031;SDS011;40928;51.076;7.950;2022-09-24T10:25:58;14.32;;;7.15;;
55031;SDS011;40928;51.076;7.950;2022-09-24T10:28:25;18.77;;;9.10;;
55031;SDS011;40928;51.076;7.950;2022-09-24T10:31:11;16.75;;;9.70;;
55031;SDS011;40928;51.076;7.950;2022-09-24T10:33:48;24.17;;;9.43;;
55031;SDS011;40928;51.076;7.950;2022-09-24T10:36:18;15.43;;;9.38;;
55031;SDS011;40928;51.076;7.950;2022-09-24T10:38:46;15.98;;;9.63;;
55031;SDS011;40928;51.076;7.950;2022-09-24T10:41:22;14.00;;;9.52;;
55031;SDS011;40928;51.076;7.950;2022-09-24T10:43:53;18.35;;;9.07;;
55031;SDS011;40928;51.076;7.950;2022-09-24T10:58:02;18.17;;;9.00;;
55031;SDS011;40928;51.076;7.950;2022-09-24T11:00:39;16.88;;;8.00;;
55031;SDS011;40928;51.076;7.950;2022-09-24T11:18:15;16.67;;;8.43;;
55031;SDS011;40928;51.076;7.950;2022-09-24T11:21:07;17.17;;;6.85;;
55031;SDS011;40928;51.076;7.950;2022-09-24T11:24:15;21.17;;;10.02;;
55031;SDS011;40928;51.076;7.950;2022-09-24T11:35:17;18.40;;;9.95;;
55031;SDS011;40928;51.076;7.950;2022-09-24T11:43:24;25.35;;;13.20;;
55031;SDS011;40928;51.076;7.950;2022-09-24T11:46:02;18.35;;;10.95;;
55031;SDS011;40928;51.076;7.950;2022-09-24T11:53:58;23.77;;;13.48;;
55031;SDS011;40928;51.076;7.950;2022-09-24T11:56:33;20.02;;;12.23;;
55031;SDS011;40928;51.076;7.950;2022-09-24T12:01:53;22.85;;;12.85;;
55031;SDS011;40928;51.076;7.950;2022-09-24T12:10:31;27.35;;;13.05;;
55031;SDS011;40928;51.076;7.950;2022-09-24T12:13:03;20.45;;;11.55;;
55031;SDS011;40928;51.076;7.950;2022-09-24T12:15:55;23.40;;;13.10;;
55031;SDS011;40928;51.076;7.950;2022-09-24T12:18:39;18.38;;;11.10;;
55031;SDS011;40928;51.076;7.950;2022-09-24T12:21:16;20.13;;;10.93;;
55031;SDS011;40928;51.076;7.950;2022-09-24T12:23:45;17.65;;;10.85;;
55031;SDS011;40928;51.076;7.950;2022-09-24T12:26:12;16.63;;;9.60;;
55031;SDS011;40928;51.076;7.950;2022-09-24T12:31:46;13.15;;;8.57;;
55031;SDS011;40928;51.076;7.950;2022-09-24T12:37:22;12.68;;;7.40;;
55031;SDS011;40928;51.076;7.950;2022-09-24T12:39:58;12.60;;;6.47;;
55031;SDS011;40928;51.076;7.950;2022-09-24T12:42:31;12.93;;;7.25;;
55031;SDS011;40928;51.076;7.950;2022-09-24T12:45:00;10.00;;;5.93;;
55031;SDS011;40928;51.076;7.950;2022-09-24T12:47:28;10.13;;;5.70;;
55031;SDS011;40928;51.076;7.950;2022-09-24T12:50:03;11.27;;;7.18;;
55031;SDS011;40928;51.076;7.950;2022-09-24T12:55:16;10.68;;;6.35;;
55031;SDS011;40928;51.076;7.950;2022-09-24T12:57:57;13.25;;;6.50;;
55031;SDS011;40928;51.076;7.950;2022-09-24T13:00:42;12.32;;;6.13;;
55031;SDS011;40928;51.076;7.950;2022-09-24T13:05:58;10.55;;;6.32;;
55031;SDS011;40928;51.076;7.950;2022-09-24T13:08:25;12.73;;;7.00;;
55031;SDS011;40928;51.076;7.950;2022-09-24T13:11:00;14.73;;;6.95;;
55031;SDS011;40928;51.076;7.950;2022-09-24T13:13:30;11.73;;;6.35;;
55031;SDS011;40928;51.076;7.950;2022-09-24T13:18:52;7.78;;;4.90;;
55031;SDS011;40928;51.076;7.950;2022-09-24T13:21:24;9.65;;;5.13;;
55031;SDS011;40928;51.076;7.950;2022-09-24T13:23:51;9.75;;;5.93;;
55031;SDS011;40928;51.076;7.950;2022-09-24T13:29:00;15.90;;;6.30;;
55031;SDS011;40928;51.076;7.950;2022-09-24T13:36:24;10.40;;;5.70;;
55031;SDS011;40928;51.076;7.950;2022-09-24T13:44:51;19.02;;;5.80;;
55031;SDS011;40928;51.076;7.950;2022-09-24T13:53:01;8.02;;;5.20;;
55031;SDS011;40928;51.076;7.950;2022-09-24T13:55:33;14.32;;;6.75;;
55031;SDS011;40928;51.076;7.950;2022-09-24T13:58:03;13.10;;;6.50;;
55031;SDS011;40928;51.076;7.950;2022-09-24T14:00:29;10.73;;;6.57;;
55031;SDS011;40928;51.076;7.950;2022-09-24T14:03:00;12.20;;;6.45;;
55031;SDS011;40928;51.076;7.950;2022-09-24T14:05:35;9.23;;;5.47;;
55031;SDS011;40928;51.076;7.950;2022-09-24T14:08:03;10.25;;;6.60;;
55031;SDS011;40928;51.076;7.950;2022-09-24T14:10:33;10.55;;;6.45;;
55031;SDS011;40928;51.076;7.950;2022-09-24T14:13:16;10.10;;;5.32;;
55031;SDS011;40928;51.076;7.950;2022-09-24T14:15:57;10.63;;;6.25;;
55031;SDS011;40928;51.076;7.950;2022-09-24T14:18:25;8.13;;;5.85;;
55031;SDS011;40928;51.076;7.950;2022-09-24T14:21:06;9.45;;;5.78;;
55031;SDS011;40928;51.076;7.950;2022-09-24T14:23:37;11.20;;;6.15;;
55031;SDS011;40928;51.076;7.950;2022-09-24T14:26:06;11.73;;;7.30;;
55031;SDS011;40928;51.076;7.950;2022-09-24T14:28:51;16.75;;;7.38;;
55031;SDS011;40928;51.076;7.950;2022-09-24T14:31:17;13.77;;;7.38;;
55031;SDS011;40928;51.076;7.950;2022-09-24T14:33:43;10.50;;;6.10;;
55031;SDS011;40928;51.076;7.950;2022-09-24T14:36:11;10.63;;;6.75;;
55031;SDS011;40928;51.076;7.950;2022-09-24T14:38:52;12.13;;;7.80;;
55031;SDS011;40928;51.076;7.950;2022-09-24T14:41:28;13.55;;;6.18;;
55031;SDS011;40928;51.076;7.950;2022-09-24T14:44:00;15.73;;;8.23;;
55031;SDS011;40928;51.076;7.950;2022-09-24T14:46:31;14.85;;;7.90;;
55031;SDS011;40928;51.076;7.950;2022-09-24T14:49:05;10.73;;;7.15;;
55031;SDS011;40928;51.076;7.950;2022-09-24T14:54:18;11.25;;;7.20;;
55031;SDS011;40928;51.076;7.950;2022-09-24T14:57:08;12.70;;;6.90;;
55031;SDS011;40928;51.076;7.950;2022-09-24T14:59:35;16.05;;;7.95;;
55031;SDS011;40928;51.076;7.950;2022-09-24T15:02:11;13.25;;;7.50;;
55031;SDS011;40928;51.076;7.950;2022-09-24T15:04:56;11.63;;;7.47;;
55031;SDS011;40928;51.076;7.950;2022-09-24T15:07:25;10.10;;;6.45;;
55031;SDS011;40928;51.076;7.950;2022-09-24T15:09:54;11.18;;;6.45;;
55031;SDS011;40928;51.076;7.950;2022-09-24T15:12:42;9.68;;;6.63;;
55031;SDS011;40928;51.076;7.950;2022-09-24T15:17:42;10.20;;;6.50;;
55031;SDS011;40928;51.076;7.950;2022-09-24T15:20:09;9.60;;;5.70;;
55031;SDS011;40928;51.076;7.950;2022-09-24T15:22:36;8.80;;;6.05;;
55031;SDS011;40928;51.076;7.950;2022-09-24T15:25:02;9.05;;;5.22;;
55031;SDS011;40928;51.076;7.950;2022-09-24T15:27:32;8.43;;;5.38;;
55031;SDS011;40928;51.076;7.950;2022-09-24T15:30:01;11.23;;;5.85;;
55031;SDS011;40928;51.076;7.950;2022-09-24T15:32:29;9.95;;;5.70;;
55031;SDS011;40928;51.076;7.950;2022-09-24T15:34:57;7.32;;;4.88;;
55031;SDS011;40928;51.076;7.950;2022-09-24T15:37:23;8.10;;;5.40;;
55031;SDS011;40928;51.076;7.950;2022-09-24T15:39:52;9.60;;;5.10;;
55031;SDS011;40928;51.076;7.950;2022-09-24T15:42:22;7.50;;;5.43;;
55031;SDS011;40928;51.076;7.950;2022-09-24T15:44:50;9.98;;;6.40;;
55031;SDS011;40928;51.076;7.950;2022-09-24T15:47:16;10.18;;;6.82;;
55031;SDS011;40928;51.076;7.950;2022-09-24T15:49:42;11.57;;;7.20;;
55031;SDS011;40928;51.076;7.950;2022-09-24T15:52:25;12.15;;;7.75;;
55031;SDS011;40928;51.076;7.950;2022-09-24T15:54:53;9.00;;;5.55;;
55031;SDS011;40928;51.076;7.950;2022-09-24T15:57:20;15.07;;;8.13;;
55031;SDS011;40928;51.076;7.950;2022-09-24T15:59:50;15.00;;;9.27;;
55031;SDS011;40928;51.076;7.950;2022-09-24T16:04:48;13.10;;;8.63;;
55031;SDS011;40928;51.076;7.950;2022-09-24T16:07:14;12.25;;;7.50;;
55031;SDS011;40928;51.076;7.950;2022-09-24T16:09:39;10.32;;;6.95;;
55031;SDS011;40928;51.076;7.950;2022-09-24T16:12:05;11.02;;;7.57;;
55031;SDS011;40928;51.076;7.950;2022-09-24T16:14:31;11.02;;;7.50;;
55031;SDS011;40928;51.076;7.950;2022-09-24T16:16:56;10.48;;;7.28;;
55031;SDS011;40928;51.076;7.950;2022-09-24T16:19:22;13.80;;;7.07;;
55031;SDS011;40928;51.076;7.950;2022-09-24T16:21:48;12.02;;;7.75;;
55031;SDS011;40928;51.076;7.950;2022-09-24T16:24:16;10.93;;;7.30;;
55031;SDS011;40928;51.076;7.950;2022-09-24T16:26:42;10.73;;;6.57;;
55031;SDS011;40928;51.076;7.950;2022-09-24T16:29:08;10.40;;;6.07;;
55031;SDS011;40928;51.076;7.950;2022-09-24T16:31:36;11.32;;;7.57;;
55031;SDS011;40928;51.076;7.950;2022-09-24T16:34:01;9.38;;;6.65;;
55031;SDS011;40928;51.076;7.950;2022-09-24T16:36:27;10.45;;;6.80;;
55031;SDS011;40928;51.076;7.950;2022-09-24T16:38:53;11.30;;;7.30;;
55031;SDS011;40928;51.076;7.950;2022-09-24T16:41:18;12.98;;;8.05;;
55031;SDS011;40928;51.076;7.950;2022-09-24T16:43:44;14.48;;;7.70;;
55031;SDS011;40928;51.076;7.950;2022-09-24T16:46:09;17.45;;;10.65;;
55031;SDS011;40928;51.076;7.950;2022-09-24T16:48:35;13.23;;;8.25;;
55031;SDS011;40928;51.076;7.950;2022-09-24T16:51:10;11.68;;;7.60;;
55031;SDS011;40928;51.076;7.950;2022-09-24T16:53:36;10.93;;;6.97;;
55031;SDS011;40928;51.076;7.950;2022-09-24T16:56:12;11.10;;;6.68;;
55031;SDS011;40928;51.076;7.950;2022-09-24T16:58:40;10.48;;;7.03;;
55031;SDS011;40928;51.076;7.950;2022-09-24T17:01:10;9.63;;;7.03;;
55031;SDS011;40928;51.076;7.950;2022-09-24T17:03:38;11.20;;;6.80;;
55031;SDS011;40928;51.076;7.950;2022-09-24T17:06:04;14.82;;;9.40;;
55031;SDS011;40928;51.076;7.950;2022-09-24T17:08:31;11.20;;;7.65;;
55031;SDS011;40928;51.076;7.950;2022-09-24T17:11:17;13.88;;;9.07;;
55031;SDS011;40928;51.076;7.950;2022-09-24T17:13:43;13.75;;;8.13;;
55031;SDS011;40928;51.076;7.950;2022-09-24T17:16:11;10.60;;;7.40;;
55031;SDS011;40928;51.076;7.950;2022-09-24T17:18:37;12.55;;;8.27;;
55031;SDS011;40928;51.076;7.950;2022-09-24T17:21:04;10.85;;;7.25;;
55031;SDS011;40928;51.076;7.950;2022-09-24T17:23:32;10.95;;;7.40;;